Time;durP1;ratioP1;P1;durP2;ratioP2;P2;SDS_P1;SDS_P2;PMS_P1;PMS_P2;Temp;Humidity;BMP_temperature;BMP_pressure;BME280_temperature;BME280_humidity;BME280_pressure;Samples;Min_cycle;Max_cycle;Signal;HPM_P1;HPM_P2
2023/01/06 00:00:44;;;;;;;1999.90;999.90;;;;;;;;;;5022495;28;20145;-48
2023/01/06 00:03:12;;;;;;;1999.90;999.90;;;;;;;;;;5017743;28;20145;-47
2023/01/06 00:05:38;;;;;;;1999.90;999.90;;;;;;;;;;5023465;28;20077;-48
2023/01/06 00:08:05;;;;;;;1999.90;999.90;;;;;;;;;;5024142;28;20084;-49
2023/01/06 00:10:31;;;;;;;1999.90;999.90;;;;;;;;;;5021245;28;20045;-49
2023/01/06 00:12:58;;;;;;;1999.90;999.90;;;;;;;;;;5019875;28;20127;-48
2023/01/06 00:15:24;;;;;;;1999.90;999.90;;;;;;;;;;5021887;28;20487;-48
2023/01/06 00:17:51;;;;;;;1999.90;999.90;;;;;;;;;;5022959;28;20136;-48
2023/01/06 00:20:19;;;;;;;1999.90;999.90;;;;;;;;;;5021988;28;20089;-48
2023/01/06 00:22:45;;;;;;;1999.90;999.90;;;;;;;;;;5018251;28;20519;-48
2023/01/06 00:25:12;;;;;;;1999.90;999.90;;;;;;;;;;5019911;28;20140;-49
2023/01/06 00:27:39;;;;;;;1999.90;999.90;;;;;;;;;;5021263;28;20049;-47
2023/01/06 00:30:07;;;;;;;1999.90;999.90;;;;;;;;;;5019059;28;20168;-47
2023/01/06 00:32:33;;;;;;;1999.90;999.90;;;;;;;;;;5022121;28;20049;-51
2023/01/06 00:35:00;;;;;;;1999.90;999.90;;;;;;;;;;5020710;28;20050;-48
2023/01/06 00:37:28;;;;;;;1999.90;999.90;;;;;;;;;;5021355;28;20081;-49
2023/01/06 00:39:54;;;;;;;1999.90;999.90;;;;;;;;;;5020771;28;20140;-48
2023/01/06 00:42:21;;;;;;;1999.90;999.90;;;;;;;;;;5019142;28;20136;-48
2023/01/06 00:44:47;;;;;;;1999.90;999.90;;;;;;;;;;5022050;28;20061;-48
2023/01/06 00:47:14;;;;;;;1999.90;999.90;;;;;;;;;;5019319;28;20136;-48
2023/01/06 00:49:40;;;;;;;1999.90;999.90;;;;;;;;;;5018015;28;20623;-49
2023/01/06 00:52:07;;;;;;;1999.90;999.90;;;;;;;;;;5020550;28;20140;-50
2023/01/06 00:54:36;;;;;;;1999.90;999.90;;;;;;;;;;5021495;28;20137;-49
2023/01/06 00:57:02;;;;;;;1999.90;999.90;;;;;;;;;;5019144;28;20088;-50
2023/01/06 00:59:29;;;;;;;1999.90;999.90;;;;;;;;;;5019896;28;20136;-48
2023/01/06 01:01:57;;;;;;;1999.90;999.90;;;;;;;;;;5020739;28;20145;-45
2023/01/06 01:04:24;;;;;;;1999.90;999.90;;;;;;;;;;5016336;28;20141;-48
2023/01/06 01:06:52;;;;;;;1999.90;999.90;;;;;;;;;;5022572;28;20123;-48
2023/01/06 01:09:20;;;;;;;1999.90;999.90;;;;;;;;;;5022705;28;20136;-48
2023/01/06 01:14:33;;;;;;;1999.90;999.90;;;;;;;;;;5023151;28;20527;-47
2023/01/06 01:17:00;;;;;;;1999.90;999.90;;;;;;;;;;5024779;28;20722;-47
2023/01/06 01:19:27;;;;;;;1999.90;999.90;;;;;;;;;;5023422;28;20053;-47
2023/01/06 01:21:54;;;;;;;1999.90;999.90;;;;;;;;;;5023472;28;20608;-47
2023/01/06 01:24:21;;;;;;;1999.90;999.90;;;;;;;;;;5025590;28;20081;-48
2023/01/06 01:26:48;;;;;;;1999.90;999.90;;;;;;;;;;5023738;28;20132;-48
2023/01/06 01:29:17;;;;;;;1999.90;999.90;;;;;;;;;;5021995;28;20136;-45
2023/01/06 01:31:44;;;;;;;1999.90;999.90;;;;;;;;;;5027018;28;20157;-47
2023/01/06 01:34:11;;;;;;;1999.90;999.90;;;;;;;;;;5023482;28;20050;-47
2023/01/06 01:36:39;;;;;;;1999.90;999.90;;;;;;;;;;5025364;28;20462;-45
2023/01/06 01:39:06;;;;;;;1999.90;999.90;;;;;;;;;;5026061;28;20589;-46
2023/01/06 01:41:32;;;;;;;1999.90;999.90;;;;;;;;;;5023412;28;20140;-49
2023/01/06 01:44:02;;;;;;;1999.90;999.90;;;;;;;;;;5023183;28;20137;-45
2023/01/06 01:46:30;;;;;;;1999.90;999.90;;;;;;;;;;5025427;28;20105;-49
2023/01/06 01:48:59;;;;;;;1999.90;999.90;;;;;;;;;;5026117;28;20492;-49
2023/01/06 01:51:29;;;;;;;1999.90;999.90;;;;;;;;;;5019575;28;20567;-50
2023/01/06 01:53:58;;;;;;;1999.90;999.90;;;;;;;;;;5021867;28;20181;-48
2023/01/06 01:56:28;;;;;;;1999.90;999.90;;;;;;;;;;5022391;28;20055;-49
2023/01/06 01:58:57;;;;;;;1999.90;999.90;;;;;;;;;;5025932;28;20083;-49
2023/01/06 02:01:25;;;;;;;1999.90;999.90;;;;;;;;;;5024814;28;20136;-50
2023/01/06 02:03:52;;;;;;;1999.90;999.90;;;;;;;;;;5041751;23;20172;-56
2023/01/06 02:06:21;;;;;;;1999.90;999.90;;;;;;;;;;5032487;28;20128;-58
2023/01/06 02:08:53;;;;;;;1999.90;999.90;;;;;;;;;;5031478;28;20126;-57
2023/01/06 02:11:19;;;;;;;1999.90;999.90;;;;;;;;;;5030587;28;20781;-58
2023/01/06 02:13:47;;;;;;;1999.90;999.90;;;;;;;;;;5031882;28;20143;-58
2023/01/06 02:16:18;;;;;;;1999.90;999.90;;;;;;;;;;5032181;28;20403;-58
2023/01/06 02:18:53;;;;;;;1999.90;999.90;;;;;;;;;;5031724;28;20139;-58
2023/01/06 02:21:32;;;;;;;1999.90;999.90;;;;;;;;;;5031727;28;20579;-56
2023/01/06 02:24:17;;;;;;;1999.90;999.90;;;;;;;;;;5029621;28;20543;-58
2023/01/06 02:27:10;;;;;;;1999.90;999.90;;;;;;;;;;5031580;28;20137;-58
2023/01/06 02:29:50;;;;;;;1999.90;999.90;;;;;;;;;;5030416;28;20145;-58
2023/01/06 02:32:28;;;;;;;1999.90;999.90;;;;;;;;;;5031619;28;20089;-58
2023/01/06 02:35:05;;;;;;;1999.90;999.90;;;;;;;;;;5030375;28;20135;-58
2023/01/06 02:37:42;;;;;;;1999.90;999.90;;;;;;;;;;5031240;28;20136;-57
2023/01/06 02:40:24;;;;;;;1999.90;999.90;;;;;;;;;;5031625;28;20172;-58
2023/01/06 02:43:00;;;;;;;1999.90;999.90;;;;;;;;;;5031419;28;20049;-58
2023/01/06 02:45:35;;;;;;;1999.90;999.90;;;;;;;;;;5031523;28;20128;-57
2023/01/06 02:48:10;;;;;;;1999.90;999.90;;;;;;;;;;5030929;28;20492;-58
2023/01/06 02:50:39;;;;;;;1999.90;999.90;;;;;;;;;;5030703;28;20141;-59
2023/01/06 02:53:08;;;;;;;1999.90;999.90;;;;;;;;;;5031018;28;20680;-59
2023/01/06 02:55:37;;;;;;;1999.90;999.90;;;;;;;;;;5030937;28;20076;-57
2023/01/06 02:58:09;;;;;;;1999.90;999.90;;;;;;;;;;5030243;28;20141;-59
2023/01/06 03:00:39;;;;;;;1999.90;999.90;;;;;;;;;;5031246;28;20468;-59
2023/01/06 03:03:12;;;;;;;1999.90;999.90;;;;;;;;;;5031066;28;20065;-56
2023/01/06 03:05:39;;;;;;;1999.90;999.90;;;;;;;;;;5027102;28;20050;-57
2023/01/06 03:08:09;;;;;;;1999.90;999.90;;;;;;;;;;5030091;28;20583;-59
2023/01/06 03:10:36;;;;;;;1999.90;999.90;;;;;;;;;;5030352;28;20041;-57
2023/01/06 03:13:06;;;;;;;1999.90;999.90;;;;;;;;;;5030786;28;20092;-59
2023/01/06 03:15:33;;;;;;;1999.90;999.90;;;;;;;;;;5030690;28;20594;-58
2023/01/06 03:17:59;;;;;;;1999.90;999.90;;;;;;;;;;5030594;28;20088;-58
2023/01/06 03:20:27;;;;;;;1999.90;999.90;;;;;;;;;;5030564;28;20511;-58
2023/01/06 03:22:54;;;;;;;1999.90;999.90;;;;;;;;;;5030366;28;20140;-58
2023/01/06 03:25:20;;;;;;;1999.90;999.90;;;;;;;;;;5030408;28;20140;-58
2023/01/06 03:27:47;;;;;;;1999.90;999.90;;;;;;;;;;5030417;28;20140;-58
2023/01/06 03:30:14;;;;;;;1999.90;999.90;;;;;;;;;;5030379;28;20085;-58
2023/01/06 03:32:48;;;;;;;1999.90;999.90;;;;;;;;;;5030623;28;20091;-58
2023/01/06 03:35:22;;;;;;;1999.90;999.90;;;;;;;;;;5028221;28;20445;-58
2023/01/06 03:37:54;;;;;;;1999.90;999.90;;;;;;;;;;5029924;28;20095;-57
2023/01/06 03:40:29;;;;;;;1999.90;999.90;;;;;;;;;;5029297;28;20080;-59
2023/01/06 03:43:11;;;;;;;1999.90;999.90;;;;;;;;;;5030027;28;20132;-58
2023/01/06 03:45:49;;;;;;;1999.90;999.90;;;;;;;;;;5029999;28;20306;-58
2023/01/06 03:48:22;;;;;;;1999.90;999.90;;;;;;;;;;5030103;28;20065;-59
2023/01/06 03:50:50;;;;;;;1999.90;999.90;;;;;;;;;;5029393;28;20132;-59
2023/01/06 03:53:24;;;;;;;1999.90;999.90;;;;;;;;;;5029800;28;20132;-59
2023/01/06 03:55:54;;;;;;;1999.90;999.90;;;;;;;;;;5030157;28;20145;-59
2023/01/06 03:58:20;;;;;;;1999.90;999.90;;;;;;;;;;5030211;28;20077;-59
2023/01/06 04:00:47;;;;;;;1999.90;999.90;;;;;;;;;;5029155;28;20057;-58
2023/01/06 04:03:14;;;;;;;1999.90;999.90;;;;;;;;;;5029836;28;20137;-59
2023/01/06 04:05:41;;;;;;;1999.90;999.90;;;;;;;;;;5029833;28;20554;-59
2023/01/06 04:08:08;;;;;;;1999.90;999.90;;;;;;;;;;5030110;28;20156;-59
2023/01/06 04:10:35;;;;;;;1999.90;999.90;;;;;;;;;;5029397;28;20577;-58
2023/01/06 04:13:01;;;;;;;1999.90;999.90;;;;;;;;;;5029856;28;20136;-58
2023/01/06 04:15:28;;;;;;;1999.90;999.90;;;;;;;;;;5029839;28;20576;-58
2023/01/06 04:17:55;;;;;;;1999.90;999.90;;;;;;;;;;5029182;28;21819;-57
2023/01/06 04:20:24;;;;;;;1999.90;999.90;;;;;;;;;;5029513;28;20156;-59
2023/01/06 04:22:53;;;;;;;1999.90;999.90;;;;;;;;;;5029442;28;20136;-59
2023/01/06 04:25:19;;;;;;;1999.90;999.90;;;;;;;;;;5029539;28;20140;-56
2023/01/06 04:27:47;;;;;;;1999.90;999.90;;;;;;;;;;5029933;28;20136;-58
2023/01/06 04:30:14;;;;;;;1999.90;999.90;;;;;;;;;;5029928;28;20076;-58
2023/01/06 04:32:40;;;;;;;1999.90;999.90;;;;;;;;;;5029772;28;20144;-59
2023/01/06 04:35:07;;;;;;;1999.90;999.90;;;;;;;;;;5029786;28;20136;-59
2023/01/06 04:37:34;;;;;;;1999.90;999.90;;;;;;;;;;5029603;28;20144;-58
2023/01/06 04:40:00;;;;;;;1999.90;999.90;;;;;;;;;;5029373;28;20613;-58
2023/01/06 04:42:27;;;;;;;1999.90;999.90;;;;;;;;;;5029851;28;20085;-58
2023/01/06 04:44:55;;;;;;;1999.90;999.90;;;;;;;;;;5030437;28;20133;-58
2023/01/06 04:47:21;;;;;;;1999.90;999.90;;;;;;;;;;5036243;28;20536;-59
2023/01/06 04:49:48;;;;;;;1999.90;999.90;;;;;;;;;;5036166;28;20577;-58
2023/01/06 04:52:16;;;;;;;1999.90;999.90;;;;;;;;;;5036147;28;20144;-58
2023/01/06 04:54:42;;;;;;;1999.90;999.90;;;;;;;;;;5035478;28;20474;-58
2023/01/06 04:57:09;;;;;;;1999.90;999.90;;;;;;;;;;5036374;28;20049;-59
2023/01/06 04:59:35;;;;;;;1999.90;999.90;;;;;;;;;;5035733;28;20467;-56
2023/01/06 05:02:03;;;;;;;1999.90;999.90;;;;;;;;;;5035552;28;20148;-58
2023/01/06 05:04:30;;;;;;;1999.90;999.90;;;;;;;;;;5035726;28;20583;-57
2023/01/06 05:06:56;;;;;;;1999.90;999.90;;;;;;;;;;5036150;28;20155;-58
2023/01/06 05:09:23;;;;;;;1999.90;999.90;;;;;;;;;;5035538;28;20543;-58
2023/01/06 05:11:49;;;;;;;1999.90;999.90;;;;;;;;;;5036075;28;20464;-59
2023/01/06 05:14:16;;;;;;;1999.90;999.90;;;;;;;;;;5035909;28;20160;-59
2023/01/06 05:16:43;;;;;;;1999.90;999.90;;;;;;;;;;5035701;28;20128;-58
2023/01/06 05:19:11;;;;;;;1999.90;999.90;;;;;;;;;;5036159;28;20460;-58
2023/01/06 05:21:37;;;;;;;1999.90;999.90;;;;;;;;;;5035708;28;20059;-57
2023/01/06 05:24:04;;;;;;;1999.90;999.90;;;;;;;;;;5035919;28;20570;-58
2023/01/06 05:26:31;;;;;;;1999.90;999.90;;;;;;;;;;5035657;28;20057;-59
2023/01/06 05:28:58;;;;;;;1999.90;999.90;;;;;;;;;;5035988;28;20564;-59
2023/01/06 05:31:25;;;;;;;1999.90;999.90;;;;;;;;;;5035422;28;20148;-58
2023/01/06 05:33:51;;;;;;;1999.90;999.90;;;;;;;;;;5035658;28;20088;-58
2023/01/06 05:36:19;;;;;;;1999.90;999.90;;;;;;;;;;5035312;28;20669;-59
2023/01/06 05:38:51;;;;;;;1999.90;999.90;;;;;;;;;;5035493;28;20523;-58
2023/01/06 05:41:18;;;;;;;1999.90;999.90;;;;;;;;;;5034876;28;20061;-58
2023/01/06 05:43:44;;;;;;;1999.90;999.90;;;;;;;;;;5034263;28;20535;-58
2023/01/06 05:46:12;;;;;;;1999.90;999.90;;;;;;;;;;5035697;28;20132;-59
2023/01/06 05:48:38;;;;;;;1999.90;999.90;;;;;;;;;;5034518;28;20151;-58
2023/01/06 05:51:07;;;;;;;1999.90;999.90;;;;;;;;;;5034448;28;20128;-57
2023/01/06 05:53:36;;;;;;;1999.90;999.90;;;;;;;;;;5033793;28;20180;-58
2023/01/06 05:56:04;;;;;;;1999.90;999.90;;;;;;;;;;5033300;28;20055;-59
2023/01/06 05:58:32;;;;;;;1999.90;999.90;;;;;;;;;;5031592;28;20589;-58
2023/01/06 06:00:58;;;;;;;1999.90;999.90;;;;;;;;;;5031945;28;20062;-58
2023/01/06 06:03:25;;;;;;;1999.90;999.90;;;;;;;;;;5026636;28;20136;-59
2023/01/06 06:05:51;;;;;;;1999.90;999.90;;;;;;;;;;5012194;28;20520;-58
2023/01/06 06:08:18;;;;;;;1999.90;999.90;;;;;;;;;;5012062;28;20129;-58
2023/01/06 06:10:46;;;;;;;1999.90;999.90;;;;;;;;;;5012291;28;20048;-58
2023/01/06 06:13:12;;;;;;;1999.90;999.90;;;;;;;;;;5012088;28;20096;-57
2023/01/06 06:15:39;;;;;;;1999.90;999.90;;;;;;;;;;5012353;28;20046;-58
2023/01/06 06:18:05;;;;;;;1999.90;999.90;;;;;;;;;;5011986;28;20141;-59
2023/01/06 06:20:32;;;;;;;1999.90;999.90;;;;;;;;;;5012090;28;20050;-58
2023/01/06 06:22:58;;;;;;;1999.90;999.90;;;;;;;;;;5012062;28;20146;-58
2023/01/06 06:25:25;;;;;;;1999.90;999.90;;;;;;;;;;5012207;28;20042;-58
2023/01/06 06:27:57;;;;;;;1999.90;999.90;;;;;;;;;;5012147;28;20061;-59
2023/01/06 06:30:23;;;;;;;1999.90;999.90;;;;;;;;;;5010262;28;20145;-56
2023/01/06 06:32:50;;;;;;;1999.90;999.90;;;;;;;;;;5011599;28;20552;-58
2023/01/06 06:35:17;;;;;;;1999.90;999.90;;;;;;;;;;5011538;28;20137;-58
2023/01/06 06:37:43;;;;;;;1999.90;999.90;;;;;;;;;;5011746;28;20089;-58
2023/01/06 06:40:11;;;;;;;1999.90;999.90;;;;;;;;;;5011624;28;20510;-57
2023/01/06 06:42:38;;;;;;;1999.90;999.90;;;;;;;;;;5011500;28;20149;-58
2023/01/06 06:45:07;;;;;;;1999.90;999.90;;;;;;;;;;5012023;28;20128;-58
2023/01/06 06:47:33;;;;;;;1999.90;999.90;;;;;;;;;;5010831;28;20049;-58
2023/01/06 06:50:00;;;;;;;1999.90;999.90;;;;;;;;;;5003892;28;20567;-58
2023/01/06 06:52:26;;;;;;;1999.90;999.90;;;;;;;;;;5011730;28;20133;-58
2023/01/06 06:54:52;;;;;;;1999.90;999.90;;;;;;;;;;5011798;28;20507;-57
2023/01/06 06:57:19;;;;;;;1999.90;999.90;;;;;;;;;;5011556;28;20128;-59
2023/01/06 06:59:45;;;;;;;1999.90;999.90;;;;;;;;;;5011589;28;20495;-59
2023/01/06 07:02:13;;;;;;;1999.90;999.90;;;;;;;;;;5011580;28;20141;-57
2023/01/06 07:04:40;;;;;;;1999.90;999.90;;;;;;;;;;5011057;28;20168;-56
2023/01/06 07:07:06;;;;;;;1999.90;999.90;;;;;;;;;;5010938;28;20136;-59
2023/01/06 07:09:33;;;;;;;1999.90;999.90;;;;;;;;;;5009990;28;20136;-56
2023/01/06 07:11:59;;;;;;;1999.90;999.90;;;;;;;;;;5009614;28;20141;-59
2023/01/06 07:14:26;;;;;;;1999.90;999.90;;;;;;;;;;5011164;28;20045;-58
2023/01/06 07:16:52;;;;;;;1999.90;999.90;;;;;;;;;;5011165;28;20766;-58
2023/01/06 07:19:20;;;;;;;1999.90;999.90;;;;;;;;;;5011233;28;20080;-59
2023/01/06 07:21:47;;;;;;;1999.90;999.90;;;;;;;;;;5009030;28;20153;-58
2023/01/06 07:24:13;;;;;;;1999.90;999.90;;;;;;;;;;5010865;28;20136;-58
2023/01/06 07:26:40;;;;;;;1999.90;999.90;;;;;;;;;;5008998;28;20137;-59
2023/01/06 07:29:06;;;;;;;1999.90;999.90;;;;;;;;;;5009584;28;20140;-57
2023/01/06 07:31:33;;;;;;;1999.90;999.90;;;;;;;;;;5008491;28;20145;-58
2023/01/06 07:33:59;;;;;;;1999.90;999.90;;;;;;;;;;5011009;28;20477;-58
2023/01/06 07:36:27;;;;;;;1999.90;999.90;;;;;;;;;;5010589;28;20141;-58
2023/01/06 07:38:54;;;;;;;1999.90;999.90;;;;;;;;;;5010646;28;20082;-58
2023/01/06 07:41:20;;;;;;;1999.90;999.90;;;;;;;;;;5010954;28;20139;-56
2023/01/06 07:43:47;;;;;;;1999.90;999.90;;;;;;;;;;5010543;28;20449;-59
2023/01/06 07:46:13;;;;;;;1999.90;999.90;;;;;;;;;;5010536;28;20141;-57
2023/01/06 07:48:40;;;;;;;1999.90;999.90;;;;;;;;;;5010539;28;20476;-59
2023/01/06 07:51:07;;;;;;;1999.90;999.90;;;;;;;;;;5010604;28;20140;-56
2023/01/06 07:53:35;;;;;;;1999.90;999.90;;;;;;;;;;5010799;28;20097;-58
2023/01/06 07:56:02;;;;;;;1999.90;999.90;;;;;;;;;;5007799;28;20057;-59
2023/01/06 07:58:29;;;;;;;1999.90;999.90;;;;;;;;;;5009406;28;20054;-55
2023/01/06 08:00:55;;;;;;;1999.90;999.90;;;;;;;;;;5010322;28;20733;-59
2023/01/06 08:03:22;;;;;;;1999.90;999.90;;;;;;;;;;5009663;28;20663;-57
2023/01/06 08:05:48;;;;;;;1999.90;999.90;;;;;;;;;;5010494;28;20053;-58
2023/01/06 08:08:15;;;;;;;1999.90;999.90;;;;;;;;;;5010217;28;20144;-57
2023/01/06 08:10:43;;;;;;;1999.90;999.90;;;;;;;;;;5010413;28;20053;-57
2023/01/06 08:13:10;;;;;;;1999.90;999.90;;;;;;;;;;5009233;28;20046;-58
2023/01/06 08:15:37;;;;;;;1999.90;999.90;;;;;;;;;;5010249;28;20764;-59
2023/01/06 08:18:04;;;;;;;1999.90;999.90;;;;;;;;;;5008477;28;20077;-58
2023/01/06 08:20:32;;;;;;;1999.90;999.90;;;;;;;;;;5009723;28;20532;-58
2023/01/06 08:22:59;;;;;;;1999.90;999.90;;;;;;;;;;5010068;28;20053;-59
2023/01/06 08:25:25;;;;;;;1999.90;999.90;;;;;;;;;;5009623;28;20132;-59
2023/01/06 08:27:53;;;;;;;1999.90;999.90;;;;;;;;;;5009083;28;20562;-59
2023/01/06 08:30:20;;;;;;;1999.90;999.90;;;;;;;;;;5009776;28;20088;-58
2023/01/06 08:32:47;;;;;;;1999.90;999.90;;;;;;;;;;5010092;28;20049;-58
2023/01/06 08:35:13;;;;;;;1999.90;999.90;;;;;;;;;;5009073;28;20476;-58
2023/01/06 08:37:40;;;;;;;1999.90;999.90;;;;;;;;;;5009637;28;20128;-59
2023/01/06 08:40:07;;;;;;;1999.90;999.90;;;;;;;;;;5008898;28;20548;-59
2023/01/06 08:42:34;;;;;;;1999.90;999.90;;;;;;;;;;5009822;28;20531;-59
2023/01/06 08:45:02;;;;;;;1999.90;999.90;;;;;;;;;;5009685;28;20149;-58
2023/01/06 08:47:28;;;;;;;1999.90;999.90;;;;;;;;;;5009628;28;20100;-58
2023/01/06 08:49:55;;;;;;;1999.90;999.90;;;;;;;;;;5010088;28;20536;-58
2023/01/06 08:52:21;;;;;;;1999.90;999.90;;;;;;;;;;5009897;28;20136;-58
2023/01/06 08:54:48;;;;;;;1999.90;999.90;;;;;;;;;;5009829;28;20045;-58
2023/01/06 08:57:15;;;;;;;1999.90;999.90;;;;;;;;;;5009849;28;20153;-59
2023/01/06 08:59:43;;;;;;;1999.90;999.90;;;;;;;;;;5009583;28;20637;-59
2023/01/06 09:02:12;;;;;;;1999.90;999.90;;;;;;;;;;5009873;28;20081;-59
2023/01/06 09:04:38;;;;;;;1999.90;999.90;;;;;;;;;;5023137;28;20057;-58
2023/01/06 09:07:05;;;;;;;1999.90;999.90;;;;;;;;;;5029445;28;20479;-57
2023/01/06 09:09:31;;;;;;;1999.90;999.90;;;;;;;;;;5029151;28;20132;-59
2023/01/06 09:11:58;;;;;;;1999.90;999.90;;;;;;;;;;5029451;28;20132;-59
2023/01/06 09:14:24;;;;;;;1999.90;999.90;;;;;;;;;;5028983;28;20469;-59
2023/01/06 09:16:51;;;;;;;1999.90;999.90;;;;;;;;;;5028822;28;20132;-57
2023/01/06 09:19:19;;;;;;;1999.90;999.90;;;;;;;;;;5029234;28;20148;-56
2023/01/06 09:21:46;;;;;;;1999.90;999.90;;;;;;;;;;5028207;28;20148;-58
2023/01/06 09:24:13;;;;;;;1999.90;999.90;;;;;;;;;;5026430;28;20152;-58
2023/01/06 09:26:40;;;;;;;1999.90;999.90;;;;;;;;;;5027639;28;20059;-59
2023/01/06 09:29:06;;;;;;;1999.90;999.90;;;;;;;;;;5028867;28;20153;-59
2023/01/06 09:31:33;;;;;;;1999.90;999.90;;;;;;;;;;5029389;28;20161;-59
2023/01/06 09:33:59;;;;;;;1999.90;999.90;;;;;;;;;;5033131;28;20144;-58
2023/01/06 09:36:27;;;;;;;1999.90;999.90;;;;;;;;;;5032861;28;20563;-60
2023/01/06 09:38:54;;;;;;;1999.90;999.90;;;;;;;;;;5033215;28;20099;-61
2023/01/06 09:41:37;;;;;;;1999.90;999.90;;;;;;;;;;5032447;28;20127;-60
2023/01/06 09:44:10;;;;;;;1999.90;999.90;;;;;;;;;;5032632;28;20051;-62
2023/01/06 09:46:39;;;;;;;1999.90;999.90;;;;;;;;;;5031803;28;20059;-65
2023/01/06 09:49:11;;;;;;;1999.90;999.90;;;;;;;;;;5031313;28;20494;-61
2023/01/06 09:51:39;;;;;;;1999.90;999.90;;;;;;;;;;5030633;28;20088;-64
2023/01/06 09:54:14;;;;;;;1999.90;999.90;;;;;;;;;;5032625;28;20124;-65
2023/01/06 09:56:42;;;;;;;1999.90;999.90;;;;;;;;;;5032466;28;20526;-65
2023/01/06 09:59:13;;;;;;;1999.90;999.90;;;;;;;;;;5032701;28;20136;-65
2023/01/06 10:01:41;;;;;;;1999.90;999.90;;;;;;;;;;5031766;28;20146;-67
2023/01/06 10:04:09;;;;;;;1999.90;999.90;;;;;;;;;;5031557;28;20144;-65
2023/01/06 10:06:40;;;;;;;1999.90;999.90;;;;;;;;;;5032558;28;20128;-65
2023/01/06 10:09:15;;;;;;;1999.90;999.90;;;;;;;;;;5032424;28;20403;-65
2023/01/06 10:11:52;;;;;;;1999.90;999.90;;;;;;;;;;5032264;28;20136;-64
2023/01/06 10:14:27;;;;;;;1999.90;999.90;;;;;;;;;;5031781;28;20057;-61
2023/01/06 10:17:05;;;;;;;1999.90;999.90;;;;;;;;;;5031664;28;20051;-65
2023/01/06 10:19:47;;;;;;;1999.90;999.90;;;;;;;;;;5031668;28;20812;-63
2023/01/06 10:22:21;;;;;;;1999.90;999.90;;;;;;;;;;5031562;28;20152;-65
2023/01/06 10:24:54;;;;;;;1999.90;999.90;;;;;;;;;;5030633;28;20140;-65
2023/01/06 10:27:26;;;;;;;1999.90;999.90;;;;;;;;;;5031483;28;20103;-64
2023/01/06 10:29:55;;;;;;;1999.90;999.90;;;;;;;;;;5031921;28;20084;-67
2023/01/06 10:32:22;;;;;;;1999.90;999.90;;;;;;;;;;5032019;28;20050;-64
2023/01/06 10:34:50;;;;;;;1999.90;999.90;;;;;;;;;;5031526;28;20053;-66
2023/01/06 10:37:22;;;;;;;1999.90;999.90;;;;;;;;;;5031803;28;20144;-65
2023/01/06 10:39:52;;;;;;;1999.90;999.90;;;;;;;;;;5031057;28;20084;-67
2023/01/06 10:45:11;;;;;;;1999.90;999.90;;;;;;;;;;5031794;28;20498;-67
2023/01/06 10:47:37;;;;;;;1999.90;999.90;;;;;;;;;;5030725;28;20137;-64
2023/01/06 10:50:04;;;;;;;1999.90;999.90;;;;;;;;;;5031359;28;20144;-64
2023/01/06 10:52:32;;;;;;;1999.90;999.90;;;;;;;;;;5031155;28;20092;-62
2023/01/06 10:55:03;;;;;;;1999.90;999.90;;;;;;;;;;5031596;28;20144;-64
2023/01/06 10:57:33;;;;;;;1999.90;999.90;;;;;;;;;;5030974;28;20080;-64
2023/01/06 11:00:16;;;;;;;1999.90;999.90;;;;;;;;;;5031161;28;20056;-61
2023/01/06 11:02:44;;;;;;;1999.90;999.90;;;;;;;;;;5031240;28;20053;-63
2023/01/06 11:05:15;;;;;;;1999.90;999.90;;;;;;;;;;5012837;28;20157;-65
2023/01/06 11:07:48;;;;;;;1999.90;999.90;;;;;;;;;;5011411;28;20058;-64
2023/01/06 11:10:29;;;;;;;1999.90;999.90;;;;;;;;;;5011140;28;20132;-64
2023/01/06 11:12:58;;;;;;;1999.90;999.90;;;;;;;;;;5010988;28;20088;-60
2023/01/06 11:15:31;;;;;;;1999.90;999.90;;;;;;;;;;5009743;28;20142;-63
2023/01/06 11:17:58;;;;;;;1999.90;999.90;;;;;;;;;;5010878;28;20512;-64
2023/01/06 11:20:30;;;;;;;1999.90;999.90;;;;;;;;;;5011159;28;20081;-64
2023/01/06 11:23:12;;;;;;;1999.90;999.90;;;;;;;;;;5010883;28;20081;-64
2023/01/06 11:25:39;;;;;;;1999.90;999.90;;;;;;;;;;5011038;28;20173;-63
2023/01/06 11:28:18;;;;;;;1999.90;999.90;;;;;;;;;;5010451;28;20082;-63
2023/01/06 11:30:49;;;;;;;1999.90;999.90;;;;;;;;;;5010484;28;20481;-63
2023/01/06 11:33:18;;;;;;;1999.90;999.90;;;;;;;;;;5010474;28;20149;-65
2023/01/06 11:35:44;;;;;;;1999.90;999.90;;;;;;;;;;5010991;28;20050;-62
2023/01/06 11:38:14;;;;;;;1999.90;999.90;;;;;;;;;;5011060;28;20129;-64
2023/01/06 11:40:43;;;;;;;1999.90;999.90;;;;;;;;;;5010380;28;20053;-66
2023/01/06 11:43:13;;;;;;;1999.90;999.90;;;;;;;;;;5010968;28;20145;-63
2023/01/06 11:45:43;;;;;;;1999.90;999.90;;;;;;;;;;5009382;28;20138;-65
2023/01/06 11:48:14;;;;;;;1999.90;999.90;;;;;;;;;;5010560;28;20050;-60
2023/01/06 11:50:41;;;;;;;1999.90;999.90;;;;;;;;;;5010843;28;20054;-63
2023/01/06 11:53:17;;;;;;;1999.90;999.90;;;;;;;;;;5010703;28;20655;-60
2023/01/06 11:55:55;;;;;;;1999.90;999.90;;;;;;;;;;5009357;28;20146;-62
2023/01/06 11:58:28;;;;;;;1999.90;999.90;;;;;;;;;;5008768;28;20467;-61
2023/01/06 12:01:00;;;;;;;1999.90;999.90;;;;;;;;;;5010593;28;20398;-61
2023/01/06 12:03:31;;;;;;;1999.90;999.90;;;;;;;;;;5010401;28;20057;-63
2023/01/06 12:06:01;;;;;;;1999.90;999.90;;;;;;;;;;5010893;28;20060;-62
2023/01/06 12:08:33;;;;;;;1999.90;999.90;;;;;;;;;;5009391;28;20062;-63
2023/01/06 12:11:03;;;;;;;1999.90;999.90;;;;;;;;;;5010491;28;20136;-62
2023/01/06 12:13:31;;;;;;;1999.90;999.90;;;;;;;;;;5010370;28;20060;-66
2023/01/06 12:16:01;;;;;;;1999.90;999.90;;;;;;;;;;5009783;28;20045;-66
2023/01/06 12:18:30;;;;;;;1999.90;999.90;;;;;;;;;;5010250;28;20132;-67
2023/01/06 12:20:58;;;;;;;1999.90;999.90;;;;;;;;;;5010307;28;20054;-69
2023/01/06 12:23:26;;;;;;;1999.90;999.90;;;;;;;;;;5010027;28;20101;-69
2023/01/06 12:25:56;;;;;;;1999.90;999.90;;;;;;;;;;5009837;28;20595;-63
2023/01/06 12:28:27;;;;;;;1999.90;999.90;;;;;;;;;;5010063;28;20145;-64
2023/01/06 12:31:00;;;;;;;1999.90;999.90;;;;;;;;;;5009546;28;20054;-67
2023/01/06 12:33:30;;;;;;;1999.90;999.90;;;;;;;;;;5009809;28;20077;-65
2023/01/06 12:36:00;;;;;;;1999.90;999.90;;;;;;;;;;5008961;28;20559;-62
2023/01/06 12:38:39;;;;;;;1999.90;999.90;;;;;;;;;;5009977;28;20141;-66
2023/01/06 12:41:10;;;;;;;1999.90;999.90;;;;;;;;;;5008785;28;20489;-66
2023/01/06 12:43:38;;;;;;;1999.90;999.90;;;;;;;;;;5009748;28;20474;-68
2023/01/06 12:46:07;;;;;;;1999.90;999.90;;;;;;;;;;5009950;28;20046;-63
2023/01/06 12:48:38;;;;;;;1999.90;999.90;;;;;;;;;;5008748;28;20513;-63
2023/01/06 12:51:10;;;;;;;1999.90;999.90;;;;;;;;;;5009489;28;20406;-67
2023/01/06 12:53:39;;;;;;;1999.90;999.90;;;;;;;;;;5009867;28;20129;-67
2023/01/06 12:56:35;;;;;;;1999.90;999.90;;;;;;;;;;5009676;28;20052;-66
2023/01/06 12:59:09;;;;;;;1999.90;999.90;;;;;;;;;;5009802;28;20133;-66
2023/01/06 13:01:39;;;;;;;1999.90;999.90;;;;;;;;;;5007857;28;20100;-67
2023/01/06 13:04:31;;;;;;;1999.90;999.90;;;;;;;;;;5009566;28;20132;-67
2023/01/06 13:07:08;;;;;;;1999.90;999.90;;;;;;;;;;5011558;28;20557;-65
2023/01/06 13:09:46;;;;;;;1999.90;999.90;;;;;;;;;;5013660;28;20058;-66
2023/01/06 13:12:21;;;;;;;1999.90;999.90;;;;;;;;;;5013067;28;20149;-66
2023/01/06 13:14:52;;;;;;;1999.90;999.90;;;;;;;;;;5013661;28;20081;-59
2023/01/06 13:17:23;;;;;;;1999.90;999.90;;;;;;;;;;5012657;28;20134;-63
2023/01/06 13:19:51;;;;;;;1999.90;999.90;;;;;;;;;;5013211;28;20056;-66
2023/01/06 13:22:21;;;;;;;1999.90;999.90;;;;;;;;;;5012782;28;20132;-66
2023/01/06 13:25:03;;;;;;;1999.90;999.90;;;;;;;;;;5012467;28;20146;-62
2023/01/06 13:27:52;;;;;;;1999.90;999.90;;;;;;;;;;5011743;28;20081;-65
2023/01/06 13:30:34;;;;;;;1999.90;999.90;;;;;;;;;;5013512;28;20488;-61
2023/01/06 13:33:19;;;;;;;1999.90;999.90;;;;;;;;;;5012035;28;20138;-63
2023/01/06 13:35:58;;;;;;;1999.90;999.90;;;;;;;;;;5013163;28;20132;-66
2023/01/06 13:38:40;;;;;;;1999.90;999.90;;;;;;;;;;5012171;28;20180;-66
2023/01/06 13:41:12;;;;;;;1999.90;999.90;;;;;;;;;;5012983;28;20147;-63
2023/01/06 13:43:41;;;;;;;1999.90;999.90;;;;;;;;;;5013063;28;20089;-66
2023/01/06 13:46:12;;;;;;;1999.90;999.90;;;;;;;;;;5013021;28;20046;-67
2023/01/06 13:48:41;;;;;;;1999.90;999.90;;;;;;;;;;5013187;28;20468;-65
2023/01/06 13:51:10;;;;;;;1999.90;999.90;;;;;;;;;;5012804;28;20060;-61
2023/01/06 13:53:38;;;;;;;1999.90;999.90;;;;;;;;;;5012827;28;20061;-63
2023/01/06 13:56:24;;;;;;;1999.90;999.90;;;;;;;;;;5012411;28;20141;-65
2023/01/06 13:59:19;;;;;;;1999.90;999.90;;;;;;;;;;5012623;28;20081;-64